Airfield :







YOU CAN JOIN US ON...

 
LOGIN :

Register | Disclaimer

   EN    FR    IT 

 









Legend :    VFR   Marginal VFR   IFR   Intensive IFR   Very Intensive IFR
Visi :
Ceiling :
>= 8 km
>= 3000ft
5 to 8 km
1000 to 3000 ft
1500m to 5 km
500 to 1000 ft
800 to 1500m
200 to 500 ft
< 800m
< 200 ft
Symbols :   Thunderstorms  Fog  Heavy snow  Heavy precipitations  Wind > 20 kt






- Airport Elevation : 90 ft
- IATA code : YHU


CYHU - Montréal Saint-Hubert

CURRENT METAR :
  • 070800Z AUTO 18007KT 9SM BKN091 OVC110 15/12 A2983 RMK SLP105 DENSITY ALT 300FT

EXPIRED METARs :
  • 070700Z AUTO 18009KT 9SM OVC086 16/12 A2984 RMK SLP108 DENSITY ALT 300FT
  • 070600Z AUTO 19007KT 9SM BKN100 OVC120 15/12 A2986 RMK SLP113 DENSITY ALT 300FT

TAF TAF CYHU
Valid from the 07 at 06:00 until the 08 at 06:00 UTC


070540Z 0706/0806 20008KT P6SM OVC100
TEMPO 0706/0711 P6SM -SHRA
FM071400 20008KT P6SM -SHRA OVC030
TEMPO 0714/0717 5SM -SHRA BR OVC020
BECMG 0714/0716 20012G22KT
FM071700 27012G22KT P6SM FEW015 BKN030
TEMPO 0717/0719 P6SM -SHRA BKN015 OVC030
FM071900 27012G22KT P6SM BKN030
BECMG 0722/0724 29010KT RMK FCST BASED ON AUTO OBS. NXT FCST BY 071200Z
CZUL FIR / North America



MET'MAP, your aeronautical weather chart ! - Copyright ORBIFLY December 2007 - Disclaimer

ORBIFLY MET'MAP TEAM :

Programming & Development : Alexandra Zaïnal
Original concept : Baudouin d'Aumeries
Technical & hardware support : Manuel Goepfert
Assistance : Marc-Olivier Méhu




SOURCES & CREDITS :

   NOAA